Echo Bay, Canada
Current Conditions -  °F | °C
As of 7:55 PM on Sunday 21 Dec 2014 (Local Time) from KANJ Reporting Station
Overcast Overcast  
Wind Chill: 24°   Ceiling: 800
Heat Index: 31°   Visibility: 7mi
Dew Point: 28°   Wind: 7mph
Humidity: 89%   Direction: 120°ESE
Pressure: 30.11"   Gusts: NA
Location:  46.48°N, 84.07°W
Report Text: KANJ 220055Z AUTO 12006KT 7SM BKN008 OVC016 M01/M02 A3011 RMK AO2 PRESFR SLP204 T10061022
Loading
Personal Weather Stations






























Interactive Weather Map New forecast layout! Learn more

10-Day Weather Forecast

Advertisements
Track Severe Weather on mobile